OICK  Khoram Abad  Airport

Iran

Add Bookmark
ICAO OICK
IATA KHD
Type Airport
Status Operational
Latitude
33° 26' 7" N
33.435398
Longitude
48° 16' 58" E
48.282902
Local (GMT +3.5 ) UTC
Sep 26, 2016 03:42 am Sep 26, 2016 00:12
Sunrise-Sunset Local UTC
Begin Civil Twilight 05:42 am 02:12
Sunrise 06:06 am 02:36
Sunset 06:08 pm 14:38
End Civil Twilight 06:33 pm 15:03
VFR
VFR
MVFR
MVFR
IFR
IFR
LIFR
LIFR
Unknown
Unavailable

Current Weather

METAR Observed VFR
OICK 252250Z 00000KT CAVOK 13/01 Q1016 Sun, Sep 25, 2016 @ 22:50 UTC
(1 Hour, 22 Minutes ago)
Visual Flight Rules
Wind Visibility Conditions
Calm 10 km or more
  • No significant weather
Temperatures Readings Precipitation
Current Temp
13°C
55°F
Dewpoint
1°C
34°F
Humidity 44%
Altimeter 30" Hg
Sea Level Pressure 1,016 mb
Field Elevation
1,155 m
3,789 ft
None Recorded

Additional weather within a 92.6km radius of OICK

Map ICAO Location
OICJ 67.4km NE (040°)
VFR
VFR
MVFR
MVFR
IFR
IFR
LIFR
LIFR
Unknown
Unavailable
-
-

CheckWX.com is intended as a tool to help pilots better visualize weather data. It is not intended as a substitute for an official weather briefing obtained from a Flight Service Station. CheckWX.com does not meet the FAA requirements for an official pre-flight weather briefing. Therefore, it's important that pilots still call and obtain an official FSS pre-flight weather briefing.

© 2007-2016 CheckWX.com
00:12:20 UTC